Terminal Aerodrome Forecast
Issued by NWS North Platte, NE

Home | Current Version | Previous Version | Text Only | Print | Product List | Glossary Off
Versions: 1 2 3 4 5 6 7 8 9 10 11 12 13 14 15 16 17

222
FTUS43 KLBF 251301 AAA
TAFVTN
TAF AMD
KVTN 251301Z 2513/2612 VRB05KT P6SM SCT250
      TEMPO 2513/2514 SCT009
     FM251600 27009KT P6SM SCT250
     FM251900 27010G19KT P6SM SKC
     FM252300 26009KT P6SM BKN150
     FM260400 30010KT P6SM SCT250=

USA.gov is the U.S. government's official web portal to all federal, state and local government web resources and services.